createdAt,value
2018-11-10T00:00:14.416Z,11.834412
2018-11-10T00:00:33.949Z,11.794128
2018-11-10T00:00:53.501Z,11.794128
2018-11-10T00:01:13.056Z,11.824341
2018-11-10T00:01:32.839Z,11.804199
2018-11-10T00:01:52.901Z,11.794128
2018-11-10T00:02:12.742Z,11.794128
2018-11-10T00:02:32.667Z,11.784058
2018-11-10T00:02:52.424Z,11.753845
2018-11-10T00:03:12.085Z,11.733704
2018-11-10T00:03:31.618Z,11.703491
2018-11-10T00:03:51.175Z,11.723633
2018-11-10T00:04:10.923Z,11.753845
2018-11-10T00:04:30.741Z,11.763916
2018-11-10T00:04:50.448Z,11.733704
2018-11-10T00:05:10.103Z,11.733704
2018-11-10T00:05:29.831Z,11.723633
2018-11-10T00:05:50.411Z,11.69342
2018-11-10T00:06:10.250Z,11.673279
2018-11-10T00:06:30.111Z,11.69342
2018-11-10T00:06:49.710Z,11.723633
2018-11-10T00:07:09.362Z,11.723633
2018-11-10T00:07:29.128Z,11.69342
2018-11-10T00:07:49.007Z,11.723633
2018-11-10T00:08:09.089Z,11.703491
2018-11-10T00:08:29.050Z,11.723633
2018-11-10T00:08:48.581Z,11.733704
2018-11-10T00:09:08.131Z,11.723633
2018-11-10T00:09:27.925Z,11.69342
2018-11-10T00:09:49.446Z,11.703491
2018-11-10T00:10:11.229Z,11.723633
2018-11-10T00:10:31.792Z,11.723633
2018-11-10T00:10:51.330Z,11.723633
2018-11-10T00:11:10.865Z,11.723633
2018-11-10T00:11:30.383Z,11.653137
2018-11-10T00:11:50.074Z,11.673279
2018-11-10T00:12:09.644Z,11.673279
2018-11-10T00:12:29.533Z,11.69342
2018-11-10T00:12:50.552Z,11.69342
2018-11-10T00:13:13.111Z,11.653137
2018-11-10T00:13:33.872Z,11.643066
2018-11-10T00:13:55.873Z,11.622925
2018-11-10T00:14:15.623Z,11.602783
2018-11-10T00:14:35.820Z,11.572571
2018-11-10T00:14:55.759Z,11.542358
2018-11-10T00:15:15.536Z,11.552429
2018-11-10T00:15:35.193Z,11.542358
2018-11-10T00:15:54.806Z,11.552429
2018-11-10T00:16:14.534Z,11.572571
2018-11-10T00:16:34.751Z,11.602783
2018-11-10T00:16:54.359Z,11.602783
2018-11-10T00:17:14.394Z,11.622925
2018-11-10T00:17:34.270Z,11.612854
2018-11-10T00:17:54.112Z,11.602783
2018-11-10T00:18:13.898Z,11.572571
2018-11-10T00:18:33.776Z,11.572571
2018-11-10T00:18:53.772Z,11.572571
2018-11-10T00:19:13.715Z,11.582642
2018-11-10T00:19:33.986Z,11.582642
2018-11-10T00:19:54.205Z,11.643066
2018-11-10T00:20:14.229Z,11.643066
2018-11-10T00:20:34.119Z,11.673279
2018-11-10T00:20:53.972Z,11.622925
2018-11-10T00:21:13.542Z,11.643066
2018-11-10T00:21:33.544Z,11.582642
2018-11-10T00:21:53.312Z,11.582642
2018-11-10T00:22:13.029Z,11.542358
2018-11-10T00:22:33.143Z,11.522217
2018-11-10T00:22:52.820Z,11.471863
2018-11-10T00:23:12.677Z,11.492004
2018-11-10T00:23:32.716Z,11.492004
2018-11-10T00:23:52.696Z,11.512146
2018-11-10T00:24:12.710Z,11.512146
2018-11-10T00:24:32.470Z,11.522217
2018-11-10T00:24:52.240Z,11.522217
2018-11-10T00:25:12.959Z,11.552429
2018-11-10T00:25:32.837Z,11.572571
2018-11-10T00:25:52.760Z,11.552429
2018-11-10T00:26:12.476Z,11.522217
2018-11-10T00:26:32.175Z,11.542358
2018-11-10T00:26:51.900Z,11.542358
2018-11-10T00:27:11.659Z,11.542358
2018-11-10T00:27:31.413Z,11.552429
2018-11-10T00:27:51.349Z,11.552429
2018-11-10T00:28:11.410Z,11.572571
2018-11-10T00:28:31.368Z,11.552429
2018-11-10T00:28:51.216Z,11.522217
2018-11-10T00:29:11.458Z,11.471863
2018-11-10T00:29:31.287Z,11.461792
2018-11-10T00:29:51.241Z,11.421509
2018-11-10T00:30:10.996Z,11.421509
2018-11-10T00:30:31.777Z,11.471863
2018-11-10T00:30:51.484Z,11.461792
2018-11-10T00:31:11.314Z,11.471863
2018-11-10T00:31:31.131Z,11.522217
2018-11-10T00:31:51.037Z,11.552429
2018-11-10T00:32:11.043Z,11.572571
2018-11-10T00:32:31.400Z,11.602783
2018-11-10T00:32:52.151Z,11.572571
2018-11-10T00:33:12.076Z,11.602783
2018-11-10T00:33:31.901Z,11.602783
2018-11-10T00:33:51.712Z,11.612854
2018-11-10T00:34:11.902Z,11.612854
2018-11-10T00:34:31.575Z,11.612854
2018-11-10T00:34:51.487Z,11.552429
2018-11-10T00:35:12.501Z,11.572571
2018-11-10T00:35:34.437Z,11.552429
2018-11-10T00:35:56.660Z,11.522217
2018-11-10T00:36:16.211Z,11.522217
2018-11-10T00:36:35.813Z,11.512146
2018-11-10T00:36:55.403Z,11.461792
2018-11-10T00:37:14.990Z,11.461792
2018-11-10T00:37:34.613Z,11.44165
2018-11-10T00:37:54.145Z,11.43158
2018-11-10T00:38:13.880Z,11.421509
2018-11-10T00:38:33.475Z,11.44165
2018-11-10T00:38:55.218Z,11.44165
2018-11-10T00:39:18.658Z,11.471863
2018-11-10T00:39:40.459Z,11.461792
2018-11-10T00:40:01.301Z,11.492004
2018-11-10T00:40:20.998Z,11.471863
2018-11-10T00:40:40.764Z,11.44165
2018-11-10T00:41:00.681Z,11.44165
2018-11-10T00:41:20.485Z,11.43158
2018-11-10T00:41:40.194Z,11.421509
2018-11-10T00:41:59.963Z,11.391296
2018-11-10T00:42:19.635Z,11.401367
2018-11-10T00:42:39.659Z,11.401367
2018-11-10T00:42:59.564Z,11.421509
2018-11-10T00:43:19.331Z,11.44165
2018-11-10T00:43:39.232Z,11.43158
2018-11-10T00:43:59.241Z,11.44165
2018-11-10T00:44:19.996Z,11.44165
2018-11-10T00:44:39.583Z,11.43158
2018-11-10T00:44:59.327Z,11.401367
2018-11-10T00:45:19.272Z,11.401367
2018-11-10T00:45:39.150Z,11.391296
2018-11-10T00:46:00.336Z,11.401367
2018-11-10T00:46:24.191Z,11.351013
2018-11-10T00:46:46.999Z,11.330872
2018-11-10T00:47:06.989Z,11.330872
2018-11-10T00:47:29.872Z,11.330872
2018-11-10T00:47:56.622Z,11.290588
2018-11-10T00:48:17.765Z,11.290588
2018-11-10T00:48:38.065Z,11.351013
2018-11-10T00:49:01.669Z,11.330872
2018-11-10T00:49:26.997Z,11.330872
2018-11-10T00:49:46.986Z,11.330872
2018-11-10T00:50:07.282Z,11.330872
2018-11-10T00:50:26.917Z,11.330872
2018-11-10T00:50:46.860Z,11.351013
2018-11-10T00:51:06.763Z,11.361084
2018-11-10T00:51:26.603Z,11.391296
2018-11-10T00:51:46.435Z,11.391296
2018-11-10T00:52:07.310Z,11.361084
2018-11-10T00:52:26.865Z,11.371155
2018-11-10T00:52:46.730Z,11.330872
2018-11-10T00:53:06.303Z,11.290588
2018-11-10T00:53:25.961Z,11.290588
2018-11-10T00:53:46.561Z,11.280518
2018-11-10T00:54:06.510Z,11.280518
2018-11-10T00:54:26.322Z,11.270447
2018-11-10T00:54:46.170Z,11.250305
2018-11-10T00:55:05.780Z,11.250305
2018-11-10T00:55:25.618Z,11.250305
2018-11-10T00:55:45.348Z,11.250305
2018-11-10T00:56:05.158Z,11.240234
2018-11-10T00:56:24.952Z,11.240234
2018-11-10T00:56:44.553Z,11.250305
2018-11-10T00:57:04.250Z,11.290588
2018-11-10T00:57:24.084Z,11.280518
2018-11-10T00:57:45.364Z,11.270447
2018-11-10T00:58:07.907Z,11.280518
2018-11-10T00:58:28.180Z,11.270447
2018-11-10T00:58:47.901Z,11.280518
2018-11-10T00:59:08.488Z,11.250305
2018-11-10T00:59:28.153Z,11.270447
2018-11-10T00:59:48.390Z,11.250305
2018-11-10T01:00:10.409Z,11.240234
2018-11-10T01:00:32.335Z,11.280518
2018-11-10T01:00:51.999Z,11.330872
2018-11-10T01:01:11.553Z,11.330872
2018-11-10T01:01:31.303Z,11.330872
2018-11-10T01:01:50.860Z,11.351013
2018-11-10T01:02:10.450Z,11.361084
2018-11-10T01:02:30.003Z,11.371155
2018-11-10T01:02:49.590Z,11.320801
2018-11-10T01:03:09.204Z,11.280518
2018-11-10T01:03:28.923Z,11.210022
2018-11-10T01:03:49.982Z,11.109314
2018-11-10T01:04:09.588Z,11.05896
2018-11-10T01:04:29.376Z,11.038818
2018-11-10T01:04:50.938Z,10.998535
2018-11-10T01:05:15.372Z,11.028748
2018-11-10T01:05:35.804Z,11.018677
2018-11-10T01:05:55.893Z,11.018677
2018-11-10T01:06:15.956Z,11.028748
2018-11-10T01:06:35.752Z,11.069031
2018-11-10T01:06:55.672Z,11.089172
2018-11-10T01:07:15.779Z,11.139526
2018-11-10T01:07:35.934Z,11.169739
2018-11-10T01:07:56.080Z,11.18988
2018-11-10T01:08:16.166Z,11.210022
2018-11-10T01:08:36.077Z,11.240234
2018-11-10T01:08:56.157Z,11.149597
2018-11-10T01:09:18.745Z,11.139526
2018-11-10T01:09:40.091Z,11.149597
2018-11-10T01:09:59.984Z,11.18988
2018-11-10T01:13:07.805Z,11.270447
2018-11-10T01:20:50.399Z,11.17981
2018-11-10T01:21:10.187Z,11.109314
2018-11-10T01:21:29.862Z,11.089172
2018-11-10T01:21:49.522Z,11.038818
2018-11-10T01:22:09.158Z,10.998535
2018-11-10T01:22:29.104Z,10.968323
2018-11-10T01:22:48.879Z,10.958252
2018-11-10T01:23:09.225Z,11.018677
2018-11-10T01:23:28.870Z,11.028748
2018-11-10T01:23:48.529Z,11.069031
2018-11-10T01:24:08.426Z,11.099243
2018-11-10T01:24:28.499Z,11.099243
2018-11-10T01:24:53.089Z,11.109314
2018-11-10T01:25:15.341Z,11.109314
2018-11-10T01:25:36.741Z,11.028748
2018-11-10T01:25:56.288Z,10.968323
2018-11-10T01:26:15.930Z,10.968323
2018-11-10T01:26:35.521Z,10.998535
2018-11-10T01:26:55.099Z,11.028748
2018-11-10T01:27:14.711Z,11.028748
2018-11-10T01:27:34.347Z,11.05896
2018-11-10T01:27:54.018Z,11.069031
2018-11-10T01:28:13.828Z,11.089172
2018-11-10T01:28:33.459Z,11.099243
2018-11-10T01:28:53.213Z,11.099243
2018-11-10T01:29:12.965Z,11.089172
2018-11-10T01:29:32.876Z,11.149597
2018-11-10T01:29:52.448Z,11.18988
2018-11-10T01:30:12.561Z,11.210022
2018-11-10T01:30:32.389Z,11.210022
2018-11-10T01:30:52.298Z,11.210022
2018-11-10T01:31:12.584Z,11.18988
2018-11-10T01:31:32.239Z,11.210022
2018-11-10T01:31:52.972Z,11.220093
2018-11-10T01:32:12.631Z,11.18988
2018-11-10T01:32:33.423Z,11.18988
2018-11-10T01:32:53.433Z,11.17981
2018-11-10T01:33:13.049Z,11.169739
2018-11-10T01:33:32.974Z,11.17981
2018-11-10T01:33:52.597Z,11.169739
2018-11-10T01:34:12.274Z,11.210022
2018-11-10T01:34:32.348Z,11.169739
2018-11-10T01:34:52.022Z,11.149597
2018-11-10T01:35:12.071Z,11.149597
2018-11-10T01:35:31.922Z,11.169739
2018-11-10T01:35:52.251Z,11.18988
2018-11-10T01:36:12.166Z,11.240234
2018-11-10T01:36:32.060Z,11.240234
2018-11-10T01:36:52.099Z,11.240234
2018-11-10T01:37:12.393Z,11.210022
2018-11-10T01:37:32.607Z,11.17981
2018-11-10T01:37:52.395Z,11.169739
2018-11-10T09:18:44.408Z,13.44574
2018-11-10T09:19:03.905Z,13.455811
2018-11-10T09:19:23.399Z,13.546448
2018-11-10T09:19:42.938Z,13.596802
2018-11-10T09:20:02.499Z,13.586731
2018-11-10T09:20:22.067Z,13.586731
2018-11-10T09:20:41.644Z,13.627014
2018-11-10T09:21:01.232Z,13.586731
2018-11-10T09:21:20.918Z,13.566589
2018-11-10T09:21:40.299Z,13.627014
2018-11-10T09:21:59.976Z,13.616943
2018-11-10T09:22:19.530Z,13.627014
2018-11-10T09:22:39.232Z,13.637085
2018-11-10T09:22:58.807Z,13.657227
2018-11-10T09:23:19.475Z,13.687439
2018-11-10T09:23:39.123Z,13.727722
2018-11-10T09:23:58.746Z,13.727722
2018-11-10T09:24:18.426Z,13.707581
2018-11-10T09:24:37.953Z,13.69751
2018-11-10T09:24:57.526Z,13.687439
2018-11-10T09:25:17.084Z,13.687439
2018-11-10T09:25:36.804Z,13.687439
2018-11-10T09:25:56.344Z,13.768005
2018-11-10T09:26:15.983Z,13.808289
2018-11-10T09:26:35.489Z,13.868713
2018-11-10T09:26:56.644Z,13.888855
2018-11-10T09:27:16.230Z,13.919067
2018-11-10T09:27:35.936Z,13.878784
2018-11-10T09:27:55.470Z,13.868713
2018-11-10T09:28:15.071Z,13.818359
2018-11-10T09:28:34.611Z,13.808289
2018-11-10T09:28:55.201Z,13.788147
2018-11-10T09:29:14.795Z,13.818359
2018-11-10T09:29:34.345Z,13.808289
2018-11-10T09:29:53.876Z,13.818359
2018-11-10T09:30:13.533Z,13.838501
2018-11-10T09:30:34.093Z,13.848572
2018-11-10T09:30:53.637Z,13.878784
2018-11-10T09:31:13.297Z,13.878784
2018-11-10T09:31:32.827Z,13.878784
2018-11-10T09:31:52.398Z,13.878784
2018-11-10T09:32:11.948Z,13.888855
2018-11-10T09:32:31.500Z,13.888855
2018-11-10T09:32:51.015Z,13.878784
2018-11-10T09:33:10.600Z,13.868713
2018-11-10T09:33:30.130Z,13.818359
2018-11-10T09:33:49.764Z,13.848572
2018-11-10T09:34:09.389Z,13.848572
2018-11-10T09:34:29.091Z,13.919067
2018-11-10T09:34:48.676Z,13.888855
2018-11-10T09:35:08.203Z,13.908997
2018-11-10T09:35:27.922Z,13.908997
2018-11-10T09:35:47.461Z,13.838501
2018-11-10T09:36:07.001Z,13.818359
2018-11-10T09:36:26.657Z,13.848572
2018-11-10T09:36:46.087Z,13.868713
2018-11-10T09:37:05.685Z,13.94928
2018-11-10T09:37:25.220Z,13.94928
2018-11-10T09:37:45.073Z,13.919067
2018-11-10T09:38:04.637Z,13.969421
2018-11-10T09:38:24.161Z,13.959351
2018-11-10T09:38:43.739Z,14.019775
2018-11-10T09:39:03.269Z,14.070129
2018-11-10T09:39:22.805Z,14.090271
2018-11-10T09:39:42.347Z,14.120483
2018-11-10T09:40:01.878Z,14.180908
2018-11-10T09:40:21.475Z,14.180908
2018-11-10T09:40:41.000Z,14.211121
2018-11-10T09:41:00.643Z,14.221191
2018-11-10T09:41:20.157Z,14.271545
2018-11-10T09:41:39.716Z,14.281616
2018-11-10T09:42:00.408Z,14.281616
2018-11-10T09:42:20.200Z,14.251404
2018-11-10T09:42:40.667Z,14.291687
2018-11-10T09:43:00.098Z,14.352112
2018-11-10T09:43:19.625Z,14.392395
2018-11-10T09:43:39.160Z,14.422607
2018-11-10T09:43:58.718Z,14.422607
2018-11-10T09:44:18.297Z,14.392395
2018-11-10T09:44:39.229Z,14.321899
2018-11-10T09:45:01.594Z,14.352112
2018-11-10T09:45:21.320Z,14.291687
2018-11-10T09:45:41.096Z,14.281616
2018-11-10T09:46:01.920Z,14.33197
2018-11-10T09:46:21.988Z,14.432678
2018-11-10T09:46:41.596Z,14.45282
2018-11-10T09:47:01.240Z,14.513245
2018-11-10T09:47:20.786Z,14.543457
2018-11-10T09:47:40.326Z,14.553528
2018-11-10T09:48:00.855Z,14.573669
2018-11-10T09:48:22.353Z,14.613953
2018-11-10T09:48:41.955Z,14.644165
2018-11-10T09:49:03.273Z,14.684448
2018-11-10T09:49:24.506Z,14.694519
2018-11-10T09:49:44.827Z,14.70459
